createdAt,value
2022-09-04T00:03:06.742Z,1.80
2022-09-04T00:08:20.559Z,1.80
2022-09-04T00:13:30.932Z,1.60
2022-09-04T00:18:41.675Z,1.53
2022-09-04T00:23:53.192Z,1.30
2022-09-04T00:29:04.432Z,1.60
2022-09-04T00:34:15.029Z,1.53
2022-09-04T00:39:25.657Z,1.50
2022-09-04T00:44:36.220Z,1.80
2022-09-04T00:49:46.873Z,1.60
2022-09-04T00:54:57.342Z,1.70
2022-09-04T01:00:09.091Z,1.53
2022-09-04T01:05:22.132Z,2.20
2022-09-04T01:10:33.830Z,1.60
2022-09-04T01:15:44.603Z,1.57
2022-09-04T01:20:54.975Z,1.70
2022-09-04T01:26:04.701Z,1.77
2022-09-04T01:31:18.738Z,1.70
2022-09-04T01:36:29.338Z,1.37
2022-09-04T01:41:40.760Z,1.73
2022-09-04T01:46:50.520Z,1.50
2022-09-04T01:51:59.257Z,1.47
2022-09-04T01:57:09.897Z,1.60
2022-09-04T02:02:20.361Z,1.30
2022-09-04T02:07:30.531Z,1.40
2022-09-04T02:12:43.062Z,1.30
2022-09-04T02:17:54.573Z,1.43
2022-09-04T02:23:10.093Z,1.70
2022-09-04T02:28:18.692Z,1.80
2022-09-04T02:33:29.239Z,1.50
2022-09-04T02:38:39.966Z,1.40
2022-09-04T02:43:50.226Z,1.70
2022-09-04T02:49:00.761Z,1.30
2022-09-04T02:54:10.973Z,1.50
2022-09-04T02:59:21.971Z,1.47
2022-09-04T03:04:32.256Z,1.30
2022-09-04T03:09:42.395Z,1.40
2022-09-04T03:14:53.135Z,1.40
2022-09-04T03:20:03.578Z,1.50
2022-09-04T03:25:12.538Z,1.47
2022-09-04T03:30:20.926Z,1.30
2022-09-04T03:35:31.582Z,1.30
2022-09-04T03:40:43.997Z,1.40
2022-09-04T03:45:54.809Z,1.40
2022-09-04T03:51:07.324Z,1.60
2022-09-04T03:56:17.553Z,1.47
2022-09-04T04:01:30.987Z,1.40
2022-09-04T04:06:41.354Z,1.30
2022-09-04T04:11:53.827Z,1.40
2022-09-04T04:17:02.477Z,1.43
2022-09-04T04:22:12.740Z,1.50
2022-09-04T04:27:25.788Z,1.40
2022-09-04T04:32:34.906Z,1.60
2022-09-04T04:37:43.965Z,1.40
2022-09-04T04:42:53.823Z,1.50
2022-09-04T04:48:04.312Z,1.30
2022-09-04T04:53:14.920Z,1.43
2022-09-04T04:58:27.430Z,1.53
2022-09-04T05:03:37.953Z,1.60
2022-09-04T05:08:50.015Z,1.50
2022-09-04T05:14:00.579Z,1.50
2022-09-04T05:19:12.656Z,1.50
2022-09-04T05:24:21.075Z,1.80
2022-09-04T05:29:32.720Z,1.30
2022-09-04T05:34:42.561Z,1.43
2022-09-04T05:39:53.366Z,1.70
2022-09-04T05:45:04.690Z,1.33
2022-09-04T05:50:14.732Z,1.70
2022-09-04T05:55:26.019Z,1.33
2022-09-04T06:00:37.077Z,1.50
2022-09-04T06:05:46.661Z,1.40
2022-09-04T06:10:57.088Z,1.40
2022-09-04T06:16:10.131Z,1.50
2022-09-04T06:21:18.794Z,1.70
2022-09-04T06:26:29.229Z,1.40
2022-09-04T06:31:40.380Z,1.30
2022-09-04T06:36:51.486Z,1.27
2022-09-04T06:42:03.502Z,1.57
2022-09-04T06:47:12.909Z,1.40
2022-09-04T06:52:22.087Z,1.60
2022-09-04T06:57:32.904Z,1.40
2022-09-04T07:02:45.124Z,1.47
2022-09-04T07:07:55.670Z,1.50
2022-09-04T07:13:06.414Z,1.30
2022-09-04T07:18:18.267Z,1.57
2022-09-04T07:23:28.550Z,1.47
2022-09-04T07:28:40.180Z,1.37
2022-09-04T07:33:51.659Z,1.67
2022-09-04T07:39:02.281Z,1.40
2022-09-04T07:44:12.629Z,1.33
2022-09-04T07:49:24.534Z,1.47
2022-09-04T07:54:33.694Z,1.30
2022-09-04T07:59:44.199Z,1.70
2022-09-04T08:04:55.322Z,1.57
2022-09-04T08:10:07.437Z,1.60
2022-09-04T08:15:19.714Z,1.63
2022-09-04T08:20:29.570Z,1.70
2022-09-04T08:25:40.466Z,1.50
2022-09-04T08:30:51.545Z,1.63
2022-09-04T08:36:02.713Z,1.50
2022-09-04T08:41:11.829Z,1.83
2022-09-04T08:46:27.034Z,1.57
2022-09-04T08:51:35.915Z,1.70
2022-09-04T08:56:45.544Z,1.77
2022-09-04T09:01:56.871Z,1.30
2022-09-04T09:07:08.126Z,1.60
2022-09-04T09:12:21.390Z,1.50
2022-09-04T09:17:34.740Z,1.70
2022-09-04T09:22:45.415Z,1.60
2022-09-04T09:27:56.497Z,1.40
2022-09-04T09:33:10.404Z,1.33
2022-09-04T09:38:21.920Z,1.60
2022-09-04T09:43:34.236Z,1.30
2022-09-04T09:48:45.251Z,1.40
2022-09-04T09:53:56.058Z,1.40
2022-09-04T09:59:06.860Z,1.43
2022-09-04T10:04:15.855Z,1.30
2022-09-04T10:09:26.459Z,1.33
2022-09-04T10:14:36.609Z,1.40
2022-09-04T10:19:48.593Z,1.50
2022-09-04T10:25:02.512Z,1.33
2022-09-04T10:30:13.308Z,1.40
2022-09-04T10:35:28.385Z,1.83
2022-09-04T10:40:51.444Z,1.40
2022-09-04T10:46:01.678Z,1.53
2022-09-04T10:51:13.947Z,1.63
2022-09-04T10:56:30.985Z,1.53
2022-09-04T11:01:40.428Z,1.60
2022-09-04T11:06:50.127Z,1.60
2022-09-04T11:12:00.552Z,1.60
2022-09-04T11:17:13.673Z,1.67
2022-09-04T11:22:35.066Z,2.00
2022-09-04T11:27:46.419Z,1.60
2022-09-04T11:32:58.271Z,1.80
2022-09-04T11:38:08.889Z,1.77
2022-09-04T11:43:19.613Z,1.80
2022-09-04T11:48:28.858Z,1.80
2022-09-04T11:53:39.693Z,1.80
2022-09-04T11:58:58.684Z,1.80
2022-09-04T12:04:12.498Z,1.90
2022-09-04T12:09:24.028Z,1.57
2022-09-04T12:14:35.467Z,1.80
2022-09-04T12:19:44.982Z,1.97
2022-09-04T12:24:54.778Z,1.50
2022-09-04T12:30:04.810Z,1.70
2022-09-04T12:35:17.004Z,1.80
2022-09-04T12:40:39.571Z,1.70
2022-09-04T12:45:50.481Z,2.10
2022-09-04T12:51:12.631Z,1.60
2022-09-04T12:56:30.461Z,1.80
2022-09-04T13:01:49.742Z,1.70
2022-09-04T13:07:16.035Z,1.70
2022-09-04T13:12:39.421Z,1.50
2022-09-04T13:17:50.629Z,1.90
2022-09-04T13:23:02.526Z,1.87
2022-09-04T13:28:17.191Z,1.50
2022-09-04T13:33:26.225Z,2.00
2022-09-04T13:38:37.735Z,2.10
2022-09-04T13:43:48.725Z,1.80
2022-09-04T13:48:59.706Z,1.73
2022-09-04T13:54:10.536Z,1.70
2022-09-04T13:59:22.823Z,1.80
2022-09-04T14:04:35.134Z,1.67
2022-09-04T14:09:47.515Z,1.70
2022-09-04T14:15:00.281Z,1.90
2022-09-04T14:20:12.443Z,1.83
2022-09-04T14:25:30.393Z,1.77
2022-09-04T14:30:40.380Z,1.80
2022-09-04T14:35:50.039Z,2.00
2022-09-04T14:41:00.154Z,1.80
2022-09-04T14:46:11.138Z,2.10
2022-09-04T14:51:22.172Z,1.80
2022-09-04T14:56:33.789Z,1.70
2022-09-04T15:01:44.592Z,2.17
2022-09-04T15:07:12.208Z,1.90
2022-09-04T15:12:24.286Z,1.93
2022-09-04T15:17:25.101Z,2.10
2022-09-04T15:22:35.721Z,1.60
2022-09-04T15:27:47.306Z,1.70
2022-09-04T15:32:57.951Z,1.90
2022-09-04T15:38:09.097Z,1.90
2022-09-04T15:43:18.364Z,2.00
2022-09-04T15:48:29.062Z,2.10
2022-09-04T15:53:40.067Z,1.87
2022-09-04T15:58:52.804Z,1.90
2022-09-04T16:04:04.366Z,2.00
2022-09-04T16:09:15.387Z,1.80
2022-09-04T16:14:29.046Z,1.70
2022-09-04T16:19:41.906Z,2.17
2022-09-04T16:24:54.505Z,2.00
2022-09-04T16:30:05.847Z,1.80
2022-09-04T16:35:18.302Z,2.40
2022-09-04T16:40:29.376Z,1.80
2022-09-04T16:45:39.658Z,1.70
2022-09-04T16:50:51.892Z,2.00
2022-09-04T16:56:04.235Z,2.13
2022-09-04T17:01:15.920Z,1.90
2022-09-04T17:06:28.673Z,2.00
2022-09-04T17:11:43.829Z,1.70
2022-09-04T17:16:57.576Z,1.87
2022-09-04T17:29:01.176Z,1.90
2022-09-04T17:29:18.801Z,1.97
2022-09-04T17:38:28.310Z,1.83
2022-09-04T17:40:53.291Z,2.10
2022-09-04T17:43:21.760Z,2.20
2022-09-04T17:48:14.188Z,2.10
2022-09-04T17:53:34.288Z,2.10
2022-09-04T17:58:38.464Z,2.07
2022-09-04T18:04:19.685Z,2.07
2022-09-04T18:09:04.050Z,2.53
2022-09-04T18:14:15.116Z,1.80
2022-09-04T18:19:25.670Z,2.27
2022-09-04T18:24:36.692Z,2.00
2022-09-04T18:31:41.585Z,2.40
2022-09-04T18:37:40.119Z,2.23
2022-09-04T18:40:13.621Z,2.13
2022-09-04T18:50:38.513Z,2.17
2022-09-04T18:51:14.078Z,2.30
2022-09-04T18:55:51.088Z,1.83
2022-09-04T19:01:02.812Z,2.20
2022-09-04T19:06:13.301Z,2.03
2022-09-04T19:11:25.309Z,2.33
2022-09-04T19:16:36.329Z,2.30
2022-09-04T19:21:58.298Z,2.23
2022-09-04T19:26:56.645Z,2.30
2022-09-04T19:32:07.315Z,2.30
2022-09-04T19:37:58.425Z,2.00
2022-09-04T19:46:00.851Z,2.03
2022-09-04T19:47:41.514Z,2.10
2022-09-04T19:53:21.294Z,2.27
2022-09-04T19:58:04.381Z,2.00
2022-09-04T20:03:29.616Z,2.00
2022-09-04T20:08:27.176Z,2.40
2022-09-04T20:13:37.719Z,2.20
2022-09-04T20:18:48.288Z,1.93
2022-09-04T20:23:59.941Z,2.10
2022-09-04T20:29:09.510Z,1.93
2022-09-04T20:34:20.405Z,2.20
2022-09-04T20:39:31.430Z,1.90
2022-09-04T20:45:08.875Z,1.70
2022-09-04T20:52:55.260Z,2.00
2022-09-04T20:55:10.036Z,2.40
2022-09-04T21:03:07.336Z,2.40
2022-09-04T21:05:32.610Z,2.27
2022-09-04T21:10:41.912Z,2.43
2022-09-04T21:15:56.933Z,2.20
2022-09-04T21:21:06.802Z,2.20
2022-09-04T21:26:20.554Z,2.60
2022-09-04T21:31:33.718Z,2.37
2022-09-04T21:36:45.740Z,1.90
2022-09-04T21:42:11.324Z,2.20
2022-09-04T21:47:17.853Z,1.80
2022-09-04T21:52:29.703Z,1.90
2022-09-04T22:02:29.075Z,2.40
2022-09-04T22:03:01.216Z,2.10
2022-09-04T22:12:50.252Z,2.10
2022-09-04T22:13:39.854Z,2.27
2022-09-04T22:18:36.089Z,2.60
2022-09-04T22:23:48.392Z,2.33
2022-09-04T22:29:00.816Z,2.20
2022-09-04T22:34:15.062Z,1.97
2022-09-04T22:39:28.373Z,2.23
2022-09-04T22:44:37.924Z,2.27
2022-09-04T22:49:49.455Z,2.20
2022-09-04T22:54:59.434Z,2.50
2022-09-04T23:00:10.853Z,2.30
2022-09-04T23:05:20.445Z,2.27
2022-09-04T23:13:53.166Z,2.73
2022-09-04T23:15:44.113Z,2.47
2022-09-04T23:26:32.321Z,2.30
2022-09-04T23:26:46.819Z,2.50
2022-09-04T23:31:19.996Z,2.40
2022-09-04T23:36:33.354Z,2.20
2022-09-04T23:41:44.648Z,2.43
2022-09-04T23:46:54.906Z,2.60
2022-09-04T23:52:09.179Z,2.80
2022-09-04T23:57:26.287Z,3.00
